Weather observations for the past three days for
Batavia Clermont County Airport
Metric (Imperial)
Date Time (edt) Wind (kph) Vis. (km) Weather Sky Cond. Temperature (ºC) Relative Humidity Wind Chill (°C) Heat Index (°C) Pressure Precipitation (cm)
Air Dwpt 6 hour altimeter (cm) sea level (mb) 1 hr 3 hr 6 hr
Max. Min.
31 08:16 Calm 16.09 Fair CLR 23.5 20.8 85% 0 0.0
31 07:56 Calm 16.09 Fair CLR 22.4 21 92% 76.5 0.0
31 07:36 Calm 16.09 Fair CLR 22.1 20.9 93% 76.5 0.0
31 07:16 Calm 16.09 Fair CLR 22.2 20.7 91% 76.5 0.0
31 06:56 Calm 16.09 Fair CLR 0 0 0% 0 0.0
31 06:36 Calm 16.09 Fair CLR 21.7 20.8 95% 76.45 0.0
31 06:16 Calm 16.09 Fair CLR 21.8 20.8 94% 76.45 0.0
31 05:56 Calm 16.09 Fair CLR 22.1 20.6 91% 76.45 0.0
31 05:36 Calm 16.09 Fair CLR 22 20.6 92% 76.45 0.0
31 05:16 Calm 16.09 Fair CLR 0 0 0% 76.45 0.0
31 04:56 Calm 16.09 NULL NULL 0 0 0% 76.45 0.0
31 04:36 Calm 0.00 NULL NULL 0 0 0% 0 0.0
31 02:16 Calm 0.00 NULL NULL 21.4 20.7 96% 0 0.0
31 01:16 Calm 0.00 NULL NULL 22 19.9 88% 0 0.0
30 23:16 Calm 16.09 Fair CLR 0 0 0% 0 0.0
30 22:56 Calm 16.09 Fair CLR 0 0 0% 0 0.0
30 22:36 Calm 16.09 Fair CLR 24 21.1 84% 24 76.48 0.0
30 22:16 Calm 16.09 Fair CLR 23.5 20.7 84% 76.48 0.0
30 21:56 Calm 16.09 Fair CLR 24.3 20.5 79% 25 76.48 0.0
30 21:36 Calm 16.09 Fair CLR 24.4 20.3 78% 25 76.48 0.0
30 21:16 Calm 16.09 Fair CLR 24 20.2 79% 24 76.45 0.0
30 20:56 S 6 16.09 Fair CLR 24.7 20.5 78% 25 76.43 0.0
30 20:36 Calm 16.09 Fair CLR 26.4 19.9 68% 28 76.43 0.0
30 20:16 Calm 16.09 Fair CLR 27.6 19.6 62% 29 76.43 0.0
30 19:56 Calm 16.09 Fair CLR 28.6 18.6 31.9 28.6 55% 30 76.43 0.0
30 19:36 Calm 16.09 Fair CLR 29.1 18.4 52% 30 76.4 0.0
30 19:16 SW 6 16.09 Fair CLR 29.6 18.3 51% 31 76.38 0.0
30 18:56 SW 7 16.09 Fair CLR 30.1 17.8 48% 31 76.38 0.0
30 18:36 SW 6 16.09 Fair CLR 30.3 17.9 47% 31 76.38 0.0
30 18:16 SW 11 16.09 Fair CLR 30.6 17.6 46% 31 76.38 0.0
30 17:56 SW 9 16.09 Fair CLR 31.1 17.7 45% 32 76.38 0.0
30 17:36 SW 11 16.09 Fair CLR 30.7 17.2 44% 31 76.38 0.0
30 17:16 SW 15 16.09 Fair CLR 31.8 17.1 41% 32 76.4 0.0
30 16:56 SW 6 16.09 Fair CLR 30.8 17.2 44% 31 76.43 0.0
30 16:36 W 6 16.09 Fair CLR 31.2 17.7 44% 32 76.43 0.0
30 16:16 Calm 16.09 Fair CLR 31.5 17.2 42% 32 76.45 0.0
30 15:56 NW 7 16.09 Partly Cloudy SCT060 30.9 17.2 44% 31 76.48 0.0
30 15:36 NW 11 16.09 Mostly Cloudy BKN060 BKN070 31 18 46% 32 76.5 0.0
30 15:16 W 13 16.09 Mostly Cloudy SCT060 BKN070 30.9 17.5 45% 31 76.53 0.0
30 14:56 NW 9 16.09 Partly Cloudy SCT060 31.2 17.4 44% 32 76.56 0.0
30 14:36 W 13 16.09 Mostly Cloudy SCT060 BKN075 31.2 17.7 44% 32 76.56 0.0
30 14:16 W 17 16.09 Mostly Cloudy SCT060 BKN075 31.7 18 44% 33 76.58 0.0
30 13:56 SW 13 16.09 Mostly Cloudy SCT060 BKN075 31.4 17 32.4 19.5 42% 32 76.61 0.0
30 13:36 W 20 16.09 Partly Cloudy SCT050 31.6 18 44% 32 76.61 0.0
30 13:16 W 13 16.09 Partly Cloudy SCT048 SCT060 31.4 19.4 49% 33 76.63 0.0
30 12:56 W 17 16.09 Fair CLR 30.5 19.3 51% 32 76.63 0.0
30 12:36 W 11 16.09 Fair CLR 30.6 20.6 55% 33 76.63 0.0
30 12:16 W 13 16.09 Fair CLR 30.2 20.1 55% 32 76.63 0.0
30 11:56 SW 7 16.09 Fair CLR 29.5 20.4 58% 32 76.63 0.0
30 11:36 Calm 16.09 Fair CLR 28.5 20.6 62% 31 76.63 0.0
30 11:16 Calm 16.09 Fair CLR 27.8 20.2 63% 30 76.63 0.0
30 10:56 W 9 16.09 Fair CLR 27.5 20.2 64% 29 76.61 0.0
30 10:36 SW 6 16.09 Fair CLR 27.1 20.4 67% 29 76.61 0.0
30 10:16 SW 7 16.09 Fair CLR 26.1 19.8 68% 27 76.56 0.0
30 09:56 SW 7 16.09 Fair CLR 26 19.8 69% 27 76.56 0.0
30 09:36 SW 7 16.09 Fair CLR 25.4 19.7 71% 26 76.56 0.0
30 09:16 Calm 16.09 Fair CLR 23.8 20.2 80% 76.58 0.0
30 08:56 Calm 16.09 Fair CLR 22.5 19.8 85% 76.61 0.0
30 08:36 Calm 16.09 Fair CLR 21.5 20 91% 76.56 0.0
30 08:16 Calm 16.09 Fair CLR 20.2 19.7 97% 76.56 0.0
30 07:56 Calm 16.09 Fair CLR 19.3 19.1 99% 76.56 0.0
30 07:36 Calm 16.09 Fair CLR 18.8 18.7 99% 76.56 0.0
30 07:16 Calm 16.09 Fair CLR 18.7 18.5 99% 76.53 0.0
30 06:56 Calm 16.09 Fair CLR 19 19 100% 76.53 0.0
30 06:36 Calm 16.09 Fair CLR 18.8 18.4 98% 76.53 0.0
30 06:16 Calm 16.09 Fair CLR 19.6 18.6 94% 76.53 0.0
30 05:56 Calm 16.09 Fair CLR 19.4 19 98% 76.5 0.0
30 05:36 Calm 16.09 Fair CLR 19.2 19.2 100% 76.5 0.0
30 05:16 Calm 16.09 Fair CLR 19.5 19.3 99% 76.53 0.0
30 04:56 Calm 16.09 Fair CLR 19.7 19.5 99% 76.5 0.0
30 02:56 Calm 16.09 Fair CLR 0 0 0% 0 0.0
30 02:36 Calm 16.09 Fair CLR 20 19.5 97% 0 0.0
30 02:16 Calm 16.09 Fair CLR 0 0 0% 76.58 0.0
30 01:56 Calm 16.09 Fair CLR 19.5 19.5 100% 76.58 0.0
30 01:36 Calm 11.27 Fair CLR 0 0 0% 0 0.0
30 01:16 Calm 16.09 Fair CLR 19.8 18.9 95% 76.56 0.0
30 00:56 Calm 11.27 Fair CLR 20 19.4 96% 76.56 0.0
30 00:36 Calm 16.09 Fair CLR 20.1 20.1 100% 76.56 0.0
29 23:56 Calm 16.09 Fair CLR 0 0 0% 76.56 0.0
29 23:36 Calm 16.09 NULL NULL 20.2 20 99% 0 0.0
29 22:36 Calm 16.09 Fair CLR 0 0 0% 0 0.0
29 22:16 Calm 16.09 Fair CLR 22.2 18.7 81% 76.56 0.0
29 21:56 Calm 16.09 Fair CLR 22.2 19.1 83% 76.53 0.0
29 21:36 Calm 16.09 Fair CLR 22.5 19 81% 76.53 0.0
29 21:16 Calm 16.09 Fair CLR 23 18.3 75% 76.5 0.0
29 20:56 Calm 16.09 Fair CLR 24.6 17.3 64% 26 76.5 0.0
29 20:36 Calm 16.09 Fair CLR 24.5 18.2 68% 25 76.5 0.0
29 20:16 Calm 16.09 Fair CLR 25.3 18.4 66% 26 76.5 0.0
29 19:56 Calm 16.09 Fair CLR 26.5 17.9 30.1 26.3 59% 27 76.53 0.0
29 19:36 Calm 16.09 Fair CLR 27 17.6 56% 28 76.53 0.0
29 19:16 Calm 16.09 Fair CLR 27 17.8 57% 28 76.53 0.0
29 18:56 Calm 16.09 Fair CLR 27.9 16.9 51% 28 76.5 0.0
29 18:36 SE 6 16.09 Fair CLR 28.6 17.4 51% 29 76.5 0.0
29 18:16 SE 6 16.09 Fair CLR 29 16.8 48% 29 76.5 0.0
29 17:56 SW 7 16.09 Fair CLR 28.9 14.8 42% 29 76.53 0.0
29 17:36 SW 7 16.09 Fair CLR 29.7 15 41% 29 76.53 0.0
29 17:16 SW 7 16.09 Partly Cloudy SCT060 28.6 15.3 44% 29 76.53 0.0
29 16:56 S 6 16.09 Partly Cloudy SCT060 29.3 15.1 42% 29 76.53 0.0
29 16:36 S 6 16.09 Partly Cloudy SCT060 29.9 15.1 41% 30 76.56 0.0
29 16:16 S 9 16.09 Partly Cloudy SCT060 29.4 15 42% 29 76.56 0.0
29 15:56 S 9 16.09 Partly Cloudy SCT060 29.8 15.2 41% 30 76.61 0.0
29 15:36 SW 7 16.09 Mostly Cloudy BKN060 30 15.2 41% 30 76.61 0.0
29 15:16 W 6 16.09 Mostly Cloudy BKN060 29.9 15.3 41% 30 76.63 0.0
29 14:56 S 9 16.09 Mostly Cloudy BKN060 29.7 15.3 42% 30 76.63 0.0
29 14:36 SE 9 16.09 Mostly Cloudy BKN060 30 16.3 44% 30 76.63 0.0
29 14:16 SE 6 16.09 Mostly Cloudy BKN060 28.4 16 47% 29 76.66 0.0
29 13:56 E 6 16.09 Mostly Cloudy BKN060 29 16 29.3 17.9 45% 29 76.68 0.0
29 13:36 S 6 16.09 Partly Cloudy SCT060 27.9 16 48% 28 76.71 0.0
29 13:16 S 7 16.09 Partly Cloudy SCT060 28.9 15.9 45% 29 76.71 0.0
29 12:56 E 9 16.09 Fair CLR 29.2 15.8 44% 29 76.73 0.0
29 12:36 Calm 16.09 Fair CLR 28.1 16.6 50% 29 76.73 0.0
29 12:16 SE 6 16.09 Fair CLR 27.7 17.5 54% 28 76.73 0.0
29 11:56 E 7 16.09 Fair CLR 27 17.5 56% 28 76.76 0.0
29 11:36 SE 6 16.09 Fair CLR 26.4 18 60% 27 76.76 0.0
29 11:16 S 7 16.09 Fair CLR 25.9 18.6 64% 27 76.76 0.0
29 10:56 S 6 16.09 Fair CLR 25.6 18.8 66% 27 76.73 0.0
29 10:36 E 9 16.09 Fair CLR 24.7 18.6 69% 26 76.73 0.0
29 10:16 SE 6 16.09 Fair CLR 23.6 18.2 72% 76.73 0.0
29 09:56 E 9 16.09 Fair CLR 23.1 18.1 74% 76.73 0.0
29 09:36 SE 7 16.09 Fair CLR 21.9 17.7 77% 76.73 0.0
29 09:16 SE 7 16.09 Fair CLR 21.5 17.8 80% 76.76 0.0
29 08:56 SE 7 16.09 Fair CLR 20.5 17.5 83% 76.73 0.0
29 08:36 SE 6 16.09 Fair CLR 19.5 17.4 88% 76.73 0.0
29 08:16 E 6 16.09 Fair CLR 18.6 17.1 91% 76.71 0.0
29 07:56 SE 7 16.09 Fair CLR 17.7 17 18.7 16 96% 76.68 0.0
29 07:36 SE 6 16.09 Fair CLR 16.6 16.5 99% 76.68 0.0
29 07:16 Calm 16.09 Fair CLR 16.1 16.1 100% 76.66 0.0
29 06:56 Calm 11.27 Fair CLR 16 16 100% 76.66 0.0
29 06:36 Calm 16.09 Fair CLR 16.4 16 98% 76.68 0.0
29 06:16 Calm 16.09 Fair CLR 17 16.4 96% 76.66 0.0
29 05:56 Calm 16.09 Fair CLR 16.6 16.5 99% 76.68 0.0
29 05:36 Calm 16.09 Fair CLR 16.9 16.2 96% 76.68 0.0
29 05:16 Calm 16.09 Fair CLR 17 16.7 98% 76.68 0.0
29 04:56 Calm 16.09 Fair CLR 17.1 16.7 98% 76.68 0.0
29 04:36 Calm 16.09 Fair CLR 17.7 16.7 94% 76.66 0.0
29 04:16 Calm 16.09 Fair CLR 17.8 16.7 93% 76.66 0.0
29 03:56 Calm 16.09 Fair CLR 17.7 16.7 94% 76.66 0.0
29 03:16 Calm 16.09 Fair CLR 18.3 17 92% 76.63 0.0
29 02:56 Calm 16.09 Fair CLR 18.5 16.9 90% 76.63 0.0
29 02:36 Calm 16.09 Fair CLR 18.5 17 91% 76.63 0.0
29 02:16 Calm 16.09 Fair CLR 18.6 16.8 89% 76.66 0.0
29 01:56 Calm 16.09 Fair CLR 18.1 17.1 24.5 18 94% 76.66 0.0
29 01:36 Calm 16.09 Fair CLR 18.6 16.8 89% 76.66 0.0
29 01:16 Calm 16.09 Fair CLR 19.6 16.5 82% 76.66 0.0
29 00:56 Calm 16.09 Fair CLR 19.6 16.5 82% 76.66 0.0
29 00:36 Calm 16.09 Fair CLR 20.1 16.4 79% 76.66 0.0
29 00:16 Calm 16.09 Fair CLR 20.1 16.5 80% 76.63 0.0
28 23:56 Calm 16.09 Fair CLR 20.7 16.6 77% 76.63 0.0
28 23:36 Calm 16.09 Fair CLR 20.6 16.9 79% 76.61 0.0
28 23:16 Calm 16.09 Fair CLR 21 17 78% 76.61 0.0
28 22:56 Calm 16.09 Fair CLR 21.1 17.5 80% 76.61 0.0
28 22:36 Calm 16.09 Fair CLR 21.4 17.5 79% 76.61 0.0
28 22:16 Calm 16.09 Fair CLR 21.7 17.7 78% 76.61 0.0
28 21:56 Calm 0.00 NULL NULL 0 0 0% 76.61 0.0
28 21:36 Calm 16.09 Fair CLR 21.9 18 79% 0 0.0
28 21:16 NE 6 0.00 Fair CLR 0 0 0% 76.56 0.0
28 20:56 Calm 16.09 Fair CLR 22.6 17.6 73% 76.56 0.0
28 20:36 Calm 16.09 Fair CLR 23.8 17.6 68% 76.53 0.0
28 20:16 Calm 16.09 Fair CLR 24 17.6 68% 25 76.5 0.0
28 19:56 N 6 16.09 Fair CLR 24.5 17.6 29.3 24.5 66% 26 76.5 0.0
28 19:36 NE 6 16.09 Fair CLR 25.2 17.6 63% 26 76.48 0.0
28 19:16 NE 7 16.09 Fair CLR 25.7 17.2 59% 27 76.48 0.0
28 18:56 NE 11 16.09 Partly Cloudy SCT060 SCT070 26.3 17.3 58% 27 76.48 0.0
28 18:36 NE 7 16.09 Mostly Cloudy SCT046 SCT060 BKN070 27 17.1 55% 28 76.48 0.0
28 18:16 E 9 16.09 Partly Cloudy SCT046 27.5 17.4 54% 28 76.48 0.0
28 17:56 NE 7 16.09 Fair CLR 26.8 16.7 54% 27 76.48 0.0
28 17:36 NE 9 16.09 Partly Cloudy SCT050 27.6 16.8 52% 28 76.48 0.0
28 17:16 NE 17 16.09 Partly Cloudy SCT050 28.2 17 51% 29 76.48 0.0
28 16:56 N 11 16.09 Fair CLR 28 16 48% 28 76.48 0.0
28 16:36 NE 7 16.09 Partly Cloudy SCT070 SCT080 27.5 16.1 50% 28 76.48 0.0
28 16:16 NE 6 16.09 Mostly Cloudy SCT060 BKN065 BKN080 27 16.3 52% 28 76.48 0.0
28 15:56 NE 11 16.09 Partly Cloudy SCT050 29 16.3 46% 29 76.5 0.0
28 15:36 Calm 16.09 Fair CLR 28.5 15.6 46% 29 76.5 0.0
28 15:16 NE 6 16.09 Fair CLR 28 15.4 46% 28 76.53 0.0
28 14:56 Calm 16.09 Partly Cloudy SCT075 SCT080 27.8 16 49% 28 76.53 0.0
28 14:36 NE 7 16.09 Partly Cloudy SCT060 SCT070 SCT080 27 16.2 52% 28 76.56 0.0
28 14:16 NE 9 16.09 Partly Cloudy SCT050 SCT060 SCT070 28.1 16.8 50% 29 76.56 0.0
28 13:56 NW 6 16.09 Partly Cloudy SCT065 28.1 16.5 28.1 18.9 49% 29 76.56 0.0
28 13:36 Calm 16.09 Mostly Cloudy SCT046 SCT065 BKN070 27.4 16.2 50% 28 76.56 0.0
28 13:16 Calm 16.09 Partly Cloudy SCT060 SCT075 27.7 16.9 52% 28 76.58 0.0
28 12:56 N 7 16.09 Partly Cloudy SCT040 SCT048 27.3 17.3 54% 28 76.61 0.0
28 12:36 NE 11 16.09 Partly Cloudy SCT040 SCT050 27.5 17.9 56% 28 76.61 0.0
28 12:16 N 7 16.09 Partly Cloudy SCT035 26.9 17.5 56% 28 76.61 0.0
28 11:56 N 9 16.09 Partly Cloudy SCT033 27.1 17.5 56% 28 76.58 0.0
28 11:36 Calm 16.09 Partly Cloudy SCT029 25.7 18.2 63% 27 76.58 0.0
28 11:16 N 6 16.09 Fair CLR 25.4 18.5 66% 26 76.56 0.0
28 10:56 NE 6 16.09 Fair CLR 25.2 18.5 66% 26 76.56 0.0
28 10:36 NE 6 16.09 Fair CLR 24.5 18.5 69% 25 76.56 0.0
28 10:16 N 6 16.09 Fair CLR 23.8 18.7 73% 76.56 0.0
28 09:56 NE 6 16.09 Fair CLR 22.8 18.8 78% 76.53 0.0
28 09:36 Calm 16.09 Fair CLR 22.1 19.1 83% 76.53 0.0
28 09:16 Calm 16.09 Fair CLR 0 0 0% 0 0.0
28 08:56 NE 7 16.09 Fair CLR 20.5 18.7 89% 76.53 0.0
28 08:36 Calm 16.09 Fair CLR 20 18.8 93% 76.53 0.0
Date Time (edt) Wind (kph) Vis. (km) Weather Sky Cond. Air Dwpt Max. Min. Relative Humidity Wind Chill (°C) Heat Index (°C) altimeter (cm) sea level (mb) 1 hr 3 hr 6 hr
6 hour
Temperature (ºC) Pressure Precipitation (cm)